sensor_id;sensor_type;location;lat;lon;timestamp;temperature;humidity
18541;DHT22;9400;50.924;5.328;2023-07-13T00:02:18;17.40;99.90
18541;DHT22;9400;50.924;5.328;2023-07-13T00:04:47;17.40;99.90
18541;DHT22;9400;50.924;5.328;2023-07-13T00:07:15;17.30;99.90
18541;DHT22;9400;50.924;5.328;2023-07-13T00:09:46;17.40;99.90
18541;DHT22;9400;50.924;5.328;2023-07-13T00:12:25;17.50;99.90
18541;DHT22;9400;50.924;5.328;2023-07-13T00:14:53;17.40;99.90
18541;DHT22;9400;50.924;5.328;2023-07-13T00:17:22;17.30;99.90
18541;DHT22;9400;50.924;5.328;2023-07-13T00:19:51;17.20;99.90
18541;DHT22;9400;50.924;5.328;2023-07-13T00:22:19;17.10;99.90
18541;DHT22;9400;50.924;5.328;2023-07-13T00:24:46;17.00;99.90
18541;DHT22;9400;50.924;5.328;2023-07-13T00:27:14;17.10;99.90
18541;DHT22;9400;50.924;5.328;2023-07-13T00:29:41;17.10;99.90
18541;DHT22;9400;50.924;5.328;2023-07-13T00:32:09;17.00;99.90
18541;DHT22;9400;50.924;5.328;2023-07-13T00:34:37;16.90;99.90
18541;DHT22;9400;50.924;5.328;2023-07-13T00:37:07;16.80;99.90
18541;DHT22;9400;50.924;5.328;2023-07-13T00:39:35;17.00;99.90
18541;DHT22;9400;50.924;5.328;2023-07-13T00:42:04;16.90;99.90
18541;DHT22;9400;50.924;5.328;2023-07-13T00:44:32;16.90;99.90
18541;DHT22;9400;50.924;5.328;2023-07-13T00:47:00;16.80;99.90
18541;DHT22;9400;50.924;5.328;2023-07-13T00:49:30;16.80;99.90
18541;DHT22;9400;50.924;5.328;2023-07-13T00:52:02;16.90;99.90
18541;DHT22;9400;50.924;5.328;2023-07-13T00:54:33;16.80;99.90
18541;DHT22;9400;50.924;5.328;2023-07-13T00:57:04;16.80;99.90
18541;DHT22;9400;50.924;5.328;2023-07-13T00:59:34;16.80;99.90
18541;DHT22;9400;50.924;5.328;2023-07-13T01:02:03;16.80;99.90
18541;DHT22;9400;50.924;5.328;2023-07-13T01:04:31;16.80;99.90
18541;DHT22;9400;50.924;5.328;2023-07-13T01:06:58;16.70;99.90
18541;DHT22;9400;50.924;5.328;2023-07-13T01:09:27;16.70;99.90
18541;DHT22;9400;50.924;5.328;2023-07-13T01:11:57;16.70;99.90
18541;DHT22;9400;50.924;5.328;2023-07-13T01:14:25;16.70;99.90
18541;DHT22;9400;50.924;5.328;2023-07-13T01:16:53;16.70;99.90
18541;DHT22;9400;50.924;5.328;2023-07-13T01:19:29;16.60;99.90
18541;DHT22;9400;50.924;5.328;2023-07-13T01:22:04;16.70;99.90
18541;DHT22;9400;50.924;5.328;2023-07-13T01:24:35;16.70;99.90
18541;DHT22;9400;50.924;5.328;2023-07-13T01:27:04;16.60;99.90
18541;DHT22;9400;50.924;5.328;2023-07-13T01:29:33;16.60;99.90
18541;DHT22;9400;50.924;5.328;2023-07-13T01:32:08;16.60;99.90
18541;DHT22;9400;50.924;5.328;2023-07-13T01:34:36;16.70;99.90
18541;DHT22;9400;50.924;5.328;2023-07-13T01:37:06;16.80;99.90
18541;DHT22;9400;50.924;5.328;2023-07-13T01:39:33;16.60;99.90
18541;DHT22;9400;50.924;5.328;2023-07-13T01:42:00;16.60;99.90
18541;DHT22;9400;50.924;5.328;2023-07-13T01:44:28;16.60;99.90
18541;DHT22;9400;50.924;5.328;2023-07-13T01:46:56;16.60;99.90
18541;DHT22;9400;50.924;5.328;2023-07-13T01:49:24;16.40;99.90
18541;DHT22;9400;50.924;5.328;2023-07-13T01:51:51;16.50;99.90
18541;DHT22;9400;50.924;5.328;2023-07-13T01:54:20;16.50;99.90
18541;DHT22;9400;50.924;5.328;2023-07-13T01:56:48;16.50;99.90
18541;DHT22;9400;50.924;5.328;2023-07-13T01:59:15;16.50;99.90
18541;DHT22;9400;50.924;5.328;2023-07-13T02:01:43;16.40;99.90
18541;DHT22;9400;50.924;5.328;2023-07-13T02:04:11;16.40;99.90
18541;DHT22;9400;50.924;5.328;2023-07-13T02:06:38;16.50;99.90
18541;DHT22;9400;50.924;5.328;2023-07-13T02:09:06;16.40;99.90
18541;DHT22;9400;50.924;5.328;2023-07-13T02:11:36;16.40;99.90
18541;DHT22;9400;50.924;5.328;2023-07-13T02:14:04;16.40;99.90
18541;DHT22;9400;50.924;5.328;2023-07-13T02:16:32;16.30;99.90
18541;DHT22;9400;50.924;5.328;2023-07-13T02:18:59;16.30;99.90
18541;DHT22;9400;50.924;5.328;2023-07-13T02:21:28;16.30;99.90
18541;DHT22;9400;50.924;5.328;2023-07-13T02:23:56;16.40;99.90
18541;DHT22;9400;50.924;5.328;2023-07-13T02:26:23;16.40;99.90
18541;DHT22;9400;50.924;5.328;2023-07-13T02:28:55;16.30;99.90
18541;DHT22;9400;50.924;5.328;2023-07-13T02:31:23;16.20;99.90
18541;DHT22;9400;50.924;5.328;2023-07-13T02:33:51;16.20;99.90
18541;DHT22;9400;50.924;5.328;2023-07-13T02:36:18;16.10;99.90
18541;DHT22;9400;50.924;5.328;2023-07-13T02:38:46;16.20;99.90
18541;DHT22;9400;50.924;5.328;2023-07-13T02:41:13;16.20;99.90
18541;DHT22;9400;50.924;5.328;2023-07-13T02:43:42;16.20;99.90
18541;DHT22;9400;50.924;5.328;2023-07-13T02:46:11;16.20;99.90
18541;DHT22;9400;50.924;5.328;2023-07-13T02:48:39;16.20;99.90
18541;DHT22;9400;50.924;5.328;2023-07-13T02:51:07;16.00;99.90
18541;DHT22;9400;50.924;5.328;2023-07-13T02:53:35;16.00;99.90
18541;DHT22;9400;50.924;5.328;2023-07-13T02:56:03;16.00;99.90
18541;DHT22;9400;50.924;5.328;2023-07-13T02:58:30;16.10;99.90
18541;DHT22;9400;50.924;5.328;2023-07-13T03:00:58;16.10;99.90
18541;DHT22;9400;50.924;5.328;2023-07-13T03:03:27;16.10;99.90
18541;DHT22;9400;50.924;5.328;2023-07-13T03:05:59;16.00;99.90
18541;DHT22;9400;50.924;5.328;2023-07-13T03:08:28;16.00;99.90
18541;DHT22;9400;50.924;5.328;2023-07-13T03:11:00;16.00;99.90
18541;DHT22;9400;50.924;5.328;2023-07-13T03:13:28;15.80;99.90
18541;DHT22;9400;50.924;5.328;2023-07-13T03:15:56;15.80;99.90
18541;DHT22;9400;50.924;5.328;2023-07-13T03:18:25;15.90;99.90
18541;DHT22;9400;50.924;5.328;2023-07-13T03:20:55;15.80;99.90
18541;DHT22;9400;50.924;5.328;2023-07-13T03:23:22;15.80;99.90
18541;DHT22;9400;50.924;5.328;2023-07-13T03:26:00;15.80;99.90
18541;DHT22;9400;50.924;5.328;2023-07-13T03:28:28;15.70;99.90
18541;DHT22;9400;50.924;5.328;2023-07-13T03:31:00;15.80;99.90
18541;DHT22;9400;50.924;5.328;2023-07-13T03:33:28;15.80;99.90
18541;DHT22;9400;50.924;5.328;2023-07-13T03:35:57;15.80;99.90
18541;DHT22;9400;50.924;5.328;2023-07-13T03:38:25;16.00;99.90
18541;DHT22;9400;50.924;5.328;2023-07-13T03:40:53;16.00;99.90
18541;DHT22;9400;50.924;5.328;2023-07-13T03:43:21;16.00;99.90
18541;DHT22;9400;50.924;5.328;2023-07-13T03:45:49;15.90;99.90
18541;DHT22;9400;50.924;5.328;2023-07-13T03:48:17;15.90;99.90
18541;DHT22;9400;50.924;5.328;2023-07-13T03:50:44;16.00;99.90
18541;DHT22;9400;50.924;5.328;2023-07-13T03:53:13;15.90;99.90
18541;DHT22;9400;50.924;5.328;2023-07-13T03:55:44;16.10;99.90
18541;DHT22;9400;50.924;5.328;2023-07-13T03:58:27;16.10;99.90
18541;DHT22;9400;50.924;5.328;2023-07-13T04:00:55;16.00;99.90
18541;DHT22;9400;50.924;5.328;2023-07-13T04:03:23;16.00;99.90
18541;DHT22;9400;50.924;5.328;2023-07-13T04:05:54;16.00;99.90
18541;DHT22;9400;50.924;5.328;2023-07-13T04:08:30;16.10;99.90
18541;DHT22;9400;50.924;5.328;2023-07-13T04:10:58;16.10;99.90
18541;DHT22;9400;50.924;5.328;2023-07-13T04:13:26;16.10;99.90
18541;DHT22;9400;50.924;5.328;2023-07-13T04:15:54;16.30;99.90
18541;DHT22;9400;50.924;5.328;2023-07-13T04:18:21;16.30;99.90
18541;DHT22;9400;50.924;5.328;2023-07-13T04:20:50;16.20;99.90
18541;DHT22;9400;50.924;5.328;2023-07-13T04:23:18;16.20;99.90
18541;DHT22;9400;50.924;5.328;2023-07-13T04:25:48;16.10;99.90
18541;DHT22;9400;50.924;5.328;2023-07-13T04:28:19;16.20;99.90
18541;DHT22;9400;50.924;5.328;2023-07-13T04:30:46;16.20;99.90
18541;DHT22;9400;50.924;5.328;2023-07-13T04:33:14;16.30;99.90
18541;DHT22;9400;50.924;5.328;2023-07-13T04:35:43;16.20;99.90
18541;DHT22;9400;50.924;5.328;2023-07-13T04:38:13;16.20;99.90
18541;DHT22;9400;50.924;5.328;2023-07-13T04:40:44;16.20;99.90
18541;DHT22;9400;50.924;5.328;2023-07-13T04:43:16;16.20;99.90
18541;DHT22;9400;50.924;5.328;2023-07-13T04:45:44;16.40;99.90
18541;DHT22;9400;50.924;5.328;2023-07-13T04:48:11;16.50;99.90
18541;DHT22;9400;50.924;5.328;2023-07-13T04:50:39;16.50;99.90
18541;DHT22;9400;50.924;5.328;2023-07-13T04:53:07;16.50;99.90
18541;DHT22;9400;50.924;5.328;2023-07-13T04:55:34;16.50;99.90
18541;DHT22;9400;50.924;5.328;2023-07-13T04:58:02;16.40;99.90
18541;DHT22;9400;50.924;5.328;2023-07-13T05:00:32;16.40;99.90
18541;DHT22;9400;50.924;5.328;2023-07-13T05:02:59;16.40;99.90
18541;DHT22;9400;50.924;5.328;2023-07-13T05:05:27;16.50;99.90
18541;DHT22;9400;50.924;5.328;2023-07-13T05:07:54;16.50;99.90
18541;DHT22;9400;50.924;5.328;2023-07-13T05:10:22;16.50;99.90
18541;DHT22;9400;50.924;5.328;2023-07-13T05:12:50;16.40;99.90
18541;DHT22;9400;50.924;5.328;2023-07-13T05:15:20;16.30;99.90
18541;DHT22;9400;50.924;5.328;2023-07-13T05:17:49;16.50;99.90
18541;DHT22;9400;50.924;5.328;2023-07-13T05:20:18;16.50;99.90
18541;DHT22;9400;50.924;5.328;2023-07-13T05:22:46;16.50;99.90
18541;DHT22;9400;50.924;5.328;2023-07-13T05:25:13;16.40;99.90
18541;DHT22;9400;50.924;5.328;2023-07-13T05:27:41;16.60;99.90
18541;DHT22;9400;50.924;5.328;2023-07-13T05:30:09;16.70;99.90
18541;DHT22;9400;50.924;5.328;2023-07-13T05:32:37;16.80;99.90
18541;DHT22;9400;50.924;5.328;2023-07-13T05:35:07;16.80;99.90
18541;DHT22;9400;50.924;5.328;2023-07-13T05:37:36;16.80;99.90
18541;DHT22;9400;50.924;5.328;2023-07-13T05:40:04;16.80;99.90
18541;DHT22;9400;50.924;5.328;2023-07-13T05:42:32;17.00;99.90
18541;DHT22;9400;50.924;5.328;2023-07-13T05:45:00;17.00;99.90
18541;DHT22;9400;50.924;5.328;2023-07-13T05:47:27;16.90;99.90
18541;DHT22;9400;50.924;5.328;2023-07-13T05:49:55;16.90;99.90
18541;DHT22;9400;50.924;5.328;2023-07-13T05:52:24;16.80;99.90
18541;DHT22;9400;50.924;5.328;2023-07-13T05:54:52;16.70;99.90
18541;DHT22;9400;50.924;5.328;2023-07-13T05:57:19;16.70;99.90
18541;DHT22;9400;50.924;5.328;2023-07-13T05:59:47;16.90;99.90
18541;DHT22;9400;50.924;5.328;2023-07-13T06:02:14;17.10;99.90
18541;DHT22;9400;50.924;5.328;2023-07-13T06:04:41;17.10;99.90
18541;DHT22;9400;50.924;5.328;2023-07-13T06:07:09;17.10;99.90
18541;DHT22;9400;50.924;5.328;2023-07-13T06:09:38;17.10;99.90
18541;DHT22;9400;50.924;5.328;2023-07-13T06:12:06;17.20;99.90
18541;DHT22;9400;50.924;5.328;2023-07-13T06:14:34;17.20;99.90
18541;DHT22;9400;50.924;5.328;2023-07-13T06:17:02;17.30;99.90
18541;DHT22;9400;50.924;5.328;2023-07-13T06:19:30;17.30;99.90
18541;DHT22;9400;50.924;5.328;2023-07-13T06:21:57;17.40;99.90
18541;DHT22;9400;50.924;5.328;2023-07-13T06:24:25;17.50;99.90
18541;DHT22;9400;50.924;5.328;2023-07-13T06:26:54;17.50;99.90
18541;DHT22;9400;50.924;5.328;2023-07-13T06:29:22;17.70;99.90
18541;DHT22;9400;50.924;5.328;2023-07-13T06:31:50;17.60;99.90
18541;DHT22;9400;50.924;5.328;2023-07-13T06:34:18;17.70;99.90
18541;DHT22;9400;50.924;5.328;2023-07-13T06:36:46;17.70;99.90
18541;DHT22;9400;50.924;5.328;2023-07-13T06:39:13;18.00;99.90
18541;DHT22;9400;50.924;5.328;2023-07-13T06:41:41;18.10;99.90
18541;DHT22;9400;50.924;5.328;2023-07-13T06:44:11;18.00;99.90
18541;DHT22;9400;50.924;5.328;2023-07-13T06:46:38;18.00;99.90
18541;DHT22;9400;50.924;5.328;2023-07-13T06:49:07;18.00;99.90
18541;DHT22;9400;50.924;5.328;2023-07-13T06:51:35;18.00;99.90
18541;DHT22;9400;50.924;5.328;2023-07-13T06:54:02;17.80;99.90
18541;DHT22;9400;50.924;5.328;2023-07-13T06:56:30;17.90;99.90
18541;DHT22;9400;50.924;5.328;2023-07-13T06:58:57;18.10;99.90
18541;DHT22;9400;50.924;5.328;2023-07-13T07:01:26;18.10;99.90
18541;DHT22;9400;50.924;5.328;2023-07-13T07:03:53;18.20;99.90
18541;DHT22;9400;50.924;5.328;2023-07-13T07:06:22;18.10;99.90
18541;DHT22;9400;50.924;5.328;2023-07-13T07:08:50;18.20;99.90
18541;DHT22;9400;50.924;5.328;2023-07-13T07:11:19;18.30;99.90
18541;DHT22;9400;50.924;5.328;2023-07-13T07:13:48;18.40;99.90
18541;DHT22;9400;50.924;5.328;2023-07-13T07:16:16;18.50;99.90
18541;DHT22;9400;50.924;5.328;2023-07-13T07:18:46;18.70;99.90
18541;DHT22;9400;50.924;5.328;2023-07-13T07:21:14;18.70;99.90
18541;DHT22;9400;50.924;5.328;2023-07-13T07:23:44;18.60;99.90
18541;DHT22;9400;50.924;5.328;2023-07-13T07:26:11;18.50;99.90
18541;DHT22;9400;50.924;5.328;2023-07-13T07:28:39;18.50;99.90
18541;DHT22;9400;50.924;5.328;2023-07-13T07:31:07;18.70;99.90
18541;DHT22;9400;50.924;5.328;2023-07-13T07:33:34;18.70;99.90
18541;DHT22;9400;50.924;5.328;2023-07-13T07:36:05;18.80;99.90
18541;DHT22;9400;50.924;5.328;2023-07-13T07:38:32;19.10;99.90
18541;DHT22;9400;50.924;5.328;2023-07-13T07:41:03;19.00;99.90
18541;DHT22;9400;50.924;5.328;2023-07-13T07:43:30;19.10;99.90
18541;DHT22;9400;50.924;5.328;2023-07-13T07:45:58;19.20;99.90
18541;DHT22;9400;50.924;5.328;2023-07-13T07:48:25;19.40;99.90
18541;DHT22;9400;50.924;5.328;2023-07-13T07:50:53;19.50;99.90
18541;DHT22;9400;50.924;5.328;2023-07-13T07:53:22;19.60;99.90
18541;DHT22;9400;50.924;5.328;2023-07-13T07:55:50;19.40;99.90
18541;DHT22;9400;50.924;5.328;2023-07-13T07:58:18;19.40;99.90
18541;DHT22;9400;50.924;5.328;2023-07-13T08:00:45;19.40;99.90
18541;DHT22;9400;50.924;5.328;2023-07-13T08:03:13;19.30;99.90
18541;DHT22;9400;50.924;5.328;2023-07-13T08:05:40;19.50;99.90
18541;DHT22;9400;50.924;5.328;2023-07-13T08:08:08;19.60;99.90
18541;DHT22;9400;50.924;5.328;2023-07-13T08:10:37;19.80;99.90
18541;DHT22;9400;50.924;5.328;2023-07-13T08:13:04;19.70;99.90
18541;DHT22;9400;50.924;5.328;2023-07-13T08:15:32;19.80;99.90
18541;DHT22;9400;50.924;5.328;2023-07-13T08:17:59;20.10;99.90
18541;DHT22;9400;50.924;5.328;2023-07-13T08:20:27;20.30;99.90
18541;DHT22;9400;50.924;5.328;2023-07-13T08:22:54;20.10;99.90
18541;DHT22;9400;50.924;5.328;2023-07-13T08:25:21;20.20;99.90
18541;DHT22;9400;50.924;5.328;2023-07-13T08:27:51;20.10;99.90
18541;DHT22;9400;50.924;5.328;2023-07-13T08:30:18;20.10;99.90
18541;DHT22;9400;50.924;5.328;2023-07-13T08:32:46;20.10;99.90
18541;DHT22;9400;50.924;5.328;2023-07-13T08:35:14;20.20;99.90
18541;DHT22;9400;50.924;5.328;2023-07-13T08:37:44;20.00;99.90
18541;DHT22;9400;50.924;5.328;2023-07-13T08:40:12;20.10;99.90
18541;DHT22;9400;50.924;5.328;2023-07-13T08:42:43;20.10;99.90
18541;DHT22;9400;50.924;5.328;2023-07-13T08:45:19;20.20;99.90
18541;DHT22;9400;50.924;5.328;2023-07-13T08:47:52;20.10;99.90
18541;DHT22;9400;50.924;5.328;2023-07-13T08:50:25;20.30;99.90
18541;DHT22;9400;50.924;5.328;2023-07-13T08:52:58;20.40;99.90
18541;DHT22;9400;50.924;5.328;2023-07-13T08:55:30;20.40;99.90
18541;DHT22;9400;50.924;5.328;2023-07-13T08:58:03;20.60;99.90
18541;DHT22;9400;50.924;5.328;2023-07-13T09:00:43;20.40;99.90
18541;DHT22;9400;50.924;5.328;2023-07-13T09:03:19;20.50;99.90
18541;DHT22;9400;50.924;5.328;2023-07-13T09:05:51;20.50;99.90
18541;DHT22;9400;50.924;5.328;2023-07-13T09:08:40;20.60;99.90
18541;DHT22;9400;50.924;5.328;2023-07-13T09:11:26;20.40;99.90
18541;DHT22;9400;50.924;5.328;2023-07-13T09:14:03;20.50;99.90
18541;DHT22;9400;50.924;5.328;2023-07-13T09:16:35;20.60;99.90
18541;DHT22;9400;50.924;5.328;2023-07-13T09:19:06;20.80;99.90
18541;DHT22;9400;50.924;5.328;2023-07-13T09:21:39;20.80;99.90
18541;DHT22;9400;50.924;5.328;2023-07-13T09:24:36;21.10;99.90
18541;DHT22;9400;50.924;5.328;2023-07-13T09:27:14;21.20;99.90
18541;DHT22;9400;50.924;5.328;2023-07-13T09:29:47;21.00;99.90
18541;DHT22;9400;50.924;5.328;2023-07-13T09:32:19;20.90;99.90
18541;DHT22;9400;50.924;5.328;2023-07-13T09:34:52;20.90;99.90
18541;DHT22;9400;50.924;5.328;2023-07-13T09:37:23;20.90;99.90
18541;DHT22;9400;50.924;5.328;2023-07-13T09:39:54;20.90;99.90
18541;DHT22;9400;50.924;5.328;2023-07-13T09:42:23;21.20;99.90
18541;DHT22;9400;50.924;5.328;2023-07-13T09:44:54;21.60;99.90
18541;DHT22;9400;50.924;5.328;2023-07-13T09:47:25;21.60;99.90
18541;DHT22;9400;50.924;5.328;2023-07-13T09:49:57;21.80;99.90
18541;DHT22;9400;50.924;5.328;2023-07-13T09:52:26;21.50;99.90
18541;DHT22;9400;50.924;5.328;2023-07-13T09:54:55;21.20;99.90
18541;DHT22;9400;50.924;5.328;2023-07-13T09:57:26;21.20;99.90
18541;DHT22;9400;50.924;5.328;2023-07-13T09:59:55;21.50;99.90
18541;DHT22;9400;50.924;5.328;2023-07-13T10:02:28;21.60;99.90
18541;DHT22;9400;50.924;5.328;2023-07-13T10:04:57;21.60;99.90
18541;DHT22;9400;50.924;5.328;2023-07-13T10:07:25;21.60;99.90
18541;DHT22;9400;50.924;5.328;2023-07-13T10:09:53;21.80;99.90
18541;DHT22;9400;50.924;5.328;2023-07-13T10:12:21;21.80;99.90
18541;DHT22;9400;50.924;5.328;2023-07-13T10:14:51;21.90;99.90
18541;DHT22;9400;50.924;5.328;2023-07-13T10:17:27;22.00;99.90
18541;DHT22;9400;50.924;5.328;2023-07-13T10:19:59;22.10;99.90
18541;DHT22;9400;50.924;5.328;2023-07-13T10:22:37;22.20;99.90
18541;DHT22;9400;50.924;5.328;2023-07-13T10:25:15;22.00;99.90
18541;DHT22;9400;50.924;5.328;2023-07-13T10:27:45;22.20;99.90
18541;DHT22;9400;50.924;5.328;2023-07-13T10:30:19;22.40;99.90
18541;DHT22;9400;50.924;5.328;2023-07-13T10:32:50;22.40;99.90
18541;DHT22;9400;50.924;5.328;2023-07-13T10:35:20;22.10;99.90
18541;DHT22;9400;50.924;5.328;2023-07-13T10:37:52;21.90;99.90
18541;DHT22;9400;50.924;5.328;2023-07-13T10:40:23;22.20;99.90
18541;DHT22;9400;50.924;5.328;2023-07-13T10:42:54;22.70;99.90
18541;DHT22;9400;50.924;5.328;2023-07-13T10:45:24;23.00;99.90
18541;DHT22;9400;50.924;5.328;2023-07-13T10:47:54;22.20;99.90
18541;DHT22;9400;50.924;5.328;2023-07-13T10:50:23;21.70;99.90
18541;DHT22;9400;50.924;5.328;2023-07-13T10:52:52;21.60;99.90
18541;DHT22;9400;50.924;5.328;2023-07-13T10:55:36;21.40;99.90
18541;DHT22;9400;50.924;5.328;2023-07-13T10:58:12;21.60;99.90
18541;DHT22;9400;50.924;5.328;2023-07-13T11:00:51;22.00;99.90
18541;DHT22;9400;50.924;5.328;2023-07-13T11:03:22;22.80;99.90
18541;DHT22;9400;50.924;5.328;2023-07-13T11:06:05;23.20;99.90
18541;DHT22;9400;50.924;5.328;2023-07-13T11:08:36;23.70;99.90
18541;DHT22;9400;50.924;5.328;2023-07-13T11:11:35;23.50;99.90
18541;DHT22;9400;50.924;5.328;2023-07-13T11:14:04;24.10;99.90
18541;DHT22;9400;50.924;5.328;2023-07-13T11:16:46;24.20;99.90
18541;DHT22;9400;50.924;5.328;2023-07-13T11:19:42;24.10;99.90
18541;DHT22;9400;50.924;5.328;2023-07-13T11:22:13;23.40;99.90
18541;DHT22;9400;50.924;5.328;2023-07-13T11:24:58;23.30;99.90
18541;DHT22;9400;50.924;5.328;2023-07-13T11:27:40;23.80;99.90
18541;DHT22;9400;50.924;5.328;2023-07-13T11:30:31;24.40;99.90
18541;DHT22;9400;50.924;5.328;2023-07-13T11:33:13;24.20;99.90
18541;DHT22;9400;50.924;5.328;2023-07-13T11:35:53;24.10;99.90
18541;DHT22;9400;50.924;5.328;2023-07-13T11:38:32;24.20;99.90
18541;DHT22;9400;50.924;5.328;2023-07-13T11:41:03;23.90;99.90
18541;DHT22;9400;50.924;5.328;2023-07-13T11:43:32;24.20;99.90
18541;DHT22;9400;50.924;5.328;2023-07-13T11:46:13;24.20;99.90
18541;DHT22;9400;50.924;5.328;2023-07-13T11:48:48;24.10;99.90
18541;DHT22;9400;50.924;5.328;2023-07-13T11:51:23;23.70;99.90
18541;DHT22;9400;50.924;5.328;2023-07-13T11:53:54;23.90;99.90
18541;DHT22;9400;50.924;5.328;2023-07-13T11:56:22;24.30;99.90
18541;DHT22;9400;50.924;5.328;2023-07-13T11:58:52;24.50;99.90
18541;DHT22;9400;50.924;5.328;2023-07-13T12:01:23;24.00;99.90
18541;DHT22;9400;50.924;5.328;2023-07-13T12:03:52;24.40;99.90
18541;DHT22;9400;50.924;5.328;2023-07-13T12:06:28;24.30;99.90
18541;DHT22;9400;50.924;5.328;2023-07-13T12:08:57;24.10;99.90
18541;DHT22;9400;50.924;5.328;2023-07-13T12:11:26;24.10;99.90
18541;DHT22;9400;50.924;5.328;2023-07-13T12:13:54;24.70;99.90
18541;DHT22;9400;50.924;5.328;2023-07-13T12:16:28;24.90;99.90
18541;DHT22;9400;50.924;5.328;2023-07-13T12:18:56;25.20;99.90
18541;DHT22;9400;50.924;5.328;2023-07-13T12:21:30;24.80;99.90
18541;DHT22;9400;50.924;5.328;2023-07-13T12:23:58;24.70;99.90
18541;DHT22;9400;50.924;5.328;2023-07-13T12:26:28;25.10;99.90
18541;DHT22;9400;50.924;5.328;2023-07-13T12:28:58;24.90;99.90
18541;DHT22;9400;50.924;5.328;2023-07-13T12:31:31;25.10;99.90
18541;DHT22;9400;50.924;5.328;2023-07-13T12:34:01;24.50;99.90
18541;DHT22;9400;50.924;5.328;2023-07-13T12:36:38;24.70;99.90
18541;DHT22;9400;50.924;5.328;2023-07-13T12:39:14;25.20;99.90
18541;DHT22;9400;50.924;5.328;2023-07-13T12:41:42;25.00;99.90
18541;DHT22;9400;50.924;5.328;2023-07-13T12:44:13;24.70;99.90
18541;DHT22;9400;50.924;5.328;2023-07-13T12:46:53;24.00;99.90
18541;DHT22;9400;50.924;5.328;2023-07-13T12:49:26;24.00;99.90
18541;DHT22;9400;50.924;5.328;2023-07-13T12:52:03;24.20;99.90
18541;DHT22;9400;50.924;5.328;2023-07-13T12:54:31;24.40;99.90
18541;DHT22;9400;50.924;5.328;2023-07-13T12:57:00;24.20;99.90
18541;DHT22;9400;50.924;5.328;2023-07-13T12:59:32;23.80;99.90
18541;DHT22;9400;50.924;5.328;2023-07-13T13:02:02;23.70;99.90
18541;DHT22;9400;50.924;5.328;2023-07-13T13:04:30;23.30;99.90
18541;DHT22;9400;50.924;5.328;2023-07-13T13:07:03;23.40;99.90
18541;DHT22;9400;50.924;5.328;2023-07-13T13:09:32;23.50;99.90
18541;DHT22;9400;50.924;5.328;2023-07-13T13:12:00;23.30;99.90
18541;DHT22;9400;50.924;5.328;2023-07-13T13:14:27;23.10;99.90
18541;DHT22;9400;50.924;5.328;2023-07-13T13:16:55;23.10;99.90
18541;DHT22;9400;50.924;5.328;2023-07-13T13:19:25;23.20;99.90
18541;DHT22;9400;50.924;5.328;2023-07-13T13:21:54;23.00;99.90
18541;DHT22;9400;50.924;5.328;2023-07-13T13:24:28;23.00;99.90
18541;DHT22;9400;50.924;5.328;2023-07-13T13:26:55;23.00;99.90
18541;DHT22;9400;50.924;5.328;2023-07-13T13:29:24;22.80;99.90
18541;DHT22;9400;50.924;5.328;2023-07-13T13:31:52;22.00;99.90
18541;DHT22;9400;50.924;5.328;2023-07-13T13:34:22;21.60;99.90
18541;DHT22;9400;50.924;5.328;2023-07-13T13:36:51;20.70;99.90
18541;DHT22;9400;50.924;5.328;2023-07-13T13:39:23;20.40;99.90
18541;DHT22;9400;50.924;5.328;2023-07-13T13:41:52;20.00;99.90
18541;DHT22;9400;50.924;5.328;2023-07-13T13:44:21;19.80;99.90
18541;DHT22;9400;50.924;5.328;2023-07-13T13:46:52;19.80;99.90
18541;DHT22;9400;50.924;5.328;2023-07-13T13:49:21;20.00;99.90
18541;DHT22;9400;50.924;5.328;2023-07-13T13:51:50;20.00;99.90
18541;DHT22;9400;50.924;5.328;2023-07-13T13:54:19;20.00;99.90
18541;DHT22;9400;50.924;5.328;2023-07-13T13:56:49;19.70;99.90
18541;DHT22;9400;50.924;5.328;2023-07-13T13:59:18;19.80;99.90
18541;DHT22;9400;50.924;5.328;2023-07-13T14:01:47;19.70;99.90
18541;DHT22;9400;50.924;5.328;2023-07-13T14:04:18;19.70;99.90
18541;DHT22;9400;50.924;5.328;2023-07-13T14:06:47;20.10;99.90
18541;DHT22;9400;50.924;5.328;2023-07-13T14:09:18;20.40;99.90
18541;DHT22;9400;50.924;5.328;2023-07-13T14:11:48;20.50;99.90
18541;DHT22;9400;50.924;5.328;2023-07-13T14:14:19;20.60;99.90
18541;DHT22;9400;50.924;5.328;2023-07-13T14:16:48;20.80;99.90
18541;DHT22;9400;50.924;5.328;2023-07-13T14:19:19;21.10;99.90
18541;DHT22;9400;50.924;5.328;2023-07-13T14:21:47;21.10;99.90
18541;DHT22;9400;50.924;5.328;2023-07-13T14:24:15;21.30;99.90
18541;DHT22;9400;50.924;5.328;2023-07-13T14:26:46;21.50;99.90
18541;DHT22;9400;50.924;5.328;2023-07-13T14:29:17;21.70;99.90
18541;DHT22;9400;50.924;5.328;2023-07-13T14:31:45;21.70;99.90
18541;DHT22;9400;50.924;5.328;2023-07-13T14:34:14;21.50;99.90
18541;DHT22;9400;50.924;5.328;2023-07-13T14:36:42;21.70;99.90
18541;DHT22;9400;50.924;5.328;2023-07-13T14:39:12;21.50;99.90
18541;DHT22;9400;50.924;5.328;2023-07-13T14:41:41;21.60;99.90
18541;DHT22;9400;50.924;5.328;2023-07-13T14:44:11;21.40;99.90
18541;DHT22;9400;50.924;5.328;2023-07-13T14:46:41;21.50;99.90
18541;DHT22;9400;50.924;5.328;2023-07-13T14:49:15;21.70;99.90
18541;DHT22;9400;50.924;5.328;2023-07-13T14:51:44;22.10;99.90
18541;DHT22;9400;50.924;5.328;2023-07-13T14:54:11;22.60;99.90
18541;DHT22;9400;50.924;5.328;2023-07-13T14:56:39;24.20;99.90
18541;DHT22;9400;50.924;5.328;2023-07-13T14:59:06;25.40;99.90
18541;DHT22;9400;50.924;5.328;2023-07-13T15:01:37;26.60;99.90
18541;DHT22;9400;50.924;5.328;2023-07-13T15:04:08;27.10;99.90
18541;DHT22;9400;50.924;5.328;2023-07-13T15:06:52;27.00;99.90
18541;DHT22;9400;50.924;5.328;2023-07-13T15:09:20;27.10;99.90
18541;DHT22;9400;50.924;5.328;2023-07-13T15:11:47;26.90;99.90
18541;DHT22;9400;50.924;5.328;2023-07-13T15:14:15;26.60;99.90
18541;DHT22;9400;50.924;5.328;2023-07-13T15:16:49;26.70;99.90
18541;DHT22;9400;50.924;5.328;2023-07-13T15:19:19;27.00;99.90
18541;DHT22;9400;50.924;5.328;2023-07-13T15:21:47;27.10;99.90
18541;DHT22;9400;50.924;5.328;2023-07-13T15:24:16;27.40;99.90
18541;DHT22;9400;50.924;5.328;2023-07-13T15:26:43;28.10;99.90
18541;DHT22;9400;50.924;5.328;2023-07-13T15:29:12;28.20;99.90
18541;DHT22;9400;50.924;5.328;2023-07-13T15:31:40;28.30;99.90
18541;DHT22;9400;50.924;5.328;2023-07-13T15:34:12;27.70;99.90
18541;DHT22;9400;50.924;5.328;2023-07-13T15:36:41;27.60;99.90
18541;DHT22;9400;50.924;5.328;2023-07-13T15:39:13;28.10;99.90
18541;DHT22;9400;50.924;5.328;2023-07-13T15:41:43;27.90;99.90
18541;DHT22;9400;50.924;5.328;2023-07-13T15:44:27;28.50;99.90
18541;DHT22;9400;50.924;5.328;2023-07-13T15:46:55;30.00;99.90
18541;DHT22;9400;50.924;5.328;2023-07-13T15:49:23;29.80;99.90
18541;DHT22;9400;50.924;5.328;2023-07-13T15:51:52;29.70;99.90
18541;DHT22;9400;50.924;5.328;2023-07-13T15:54:20;29.40;99.90
18541;DHT22;9400;50.924;5.328;2023-07-13T15:56:52;29.40;99.90
18541;DHT22;9400;50.924;5.328;2023-07-13T15:59:20;28.50;99.90
18541;DHT22;9400;50.924;5.328;2023-07-13T16:01:47;27.50;99.90
18541;DHT22;9400;50.924;5.328;2023-07-13T16:04:16;26.90;99.90